Time;durP1;ratioP1;P1;durP2;ratioP2;P2;SDS_P1;SDS_P2;PMS_P1;PMS_P2;Temp;Humidity;BMP_temperature;BMP_pressure;BME280_temperature;BME280_humidity;BME280_pressure;Samples;Min_cycle;Max_cycle;Signal;HPM_P1;HPM_P2
2022/05/06 05:33:52;;;;;;;7.58;3.25;;;;;;;11.60;41.73;101267.22;1724538;80;21129;-47
2022/05/06 05:36:29;;;;;;;7.33;3.00;;;;;;;11.83;40.64;101270.12;1737960;81;21032;-42
2022/05/06 05:39:02;;;;;;;4.83;3.08;;;;;;;11.97;39.65;101264.56;1718406;81;20991;-48
2022/05/06 05:41:41;;;;;;;7.00;3.27;;;;;;;12.09;39.23;101265.11;1697095;81;21015;-42
2022/05/06 05:50:05;;;;;;;6.45;3.65;;;;;;;12.47;37.50;101267.19;1713979;81;21043;-47
2022/05/06 05:52:41;;;;;;;11.93;3.27;;;;;;;12.55;37.20;101273.36;1729724;83;21653;-48
2022/05/06 05:55:19;;;;;;;4.95;2.30;;;;;;;12.62;37.43;101266.41;1716484;83;20965;-47
2022/05/06 05:57:52;;;;;;;5.97;3.60;;;;;;;12.74;37.35;101273.92;1719096;83;21041;-48
2022/05/06 06:00:27;;;;;;;3.40;2.80;;;;;;;12.86;36.79;101267.87;1719353;83;21064;-42
2022/05/06 06:03:06;;;;;;;6.35;2.33;;;;;;;12.96;36.79;101272.31;1728659;81;21563;-47
2022/05/06 06:05:34;;;;;;;4.90;2.90;;;;;;;13.09;36.40;101268.44;1718794;83;21045;-44
2022/05/06 06:08:03;;;;;;;5.92;3.17;;;;;;;13.19;36.52;101273.75;1718695;83;21073;-41
2022/05/06 06:10:29;;;;;;;4.85;2.95;;;;;;;13.31;37.31;101276.91;1718757;83;21065;-47
2022/05/06 06:12:58;;;;;;;13.93;2.77;;;;;;;13.45;36.11;101275.62;1718413;83;21052;-41
2022/05/06 06:15:33;;;;;;;7.33;3.37;;;;;;;13.58;35.51;101276.14;1719169;81;21085;-43
2022/05/06 06:18:14;;;;;;;8.45;3.42;;;;;;;13.69;35.21;101275.73;1718985;83;21085;-41
2022/05/06 06:20:51;;;;;;;7.37;2.95;;;;;;;13.82;35.69;101280.14;1718942;83;21567;-41
2022/05/06 06:23:26;;;;;;;5.92;2.87;;;;;;;13.94;34.48;101274.47;1686329;81;21033;-41
2022/05/06 06:26:05;;;;;;;3.12;2.35;;;;;;;13.97;33.81;101269.20;1691333;83;21592;-47
2022/05/06 06:28:40;;;;;;;10.23;2.22;;;;;;;14.03;34.51;101276.69;1690128;83;21118;-40
2022/05/06 06:31:10;;;;;;;2.62;1.95;;;;;;;14.15;33.75;101270.56;1689045;85;21122;-42
2022/05/06 06:33:44;;;;;;;6.22;2.08;;;;;;;14.27;33.13;101273.63;1698522;83;21002;-41
2022/05/06 06:36:24;;;;;;;4.42;2.35;;;;;;;14.36;32.07;101272.30;1724382;83;21512;-42
2022/05/06 06:38:52;;;;;;;3.70;2.30;;;;;;;14.40;32.55;101263.53;1723768;82;21077;-42
2022/05/06 06:41:27;;;;;;;7.33;2.42;;;;;;;14.52;32.66;101263.55;1697922;83;21040;-47
2022/05/06 06:44:02;;;;;;;2.70;1.87;;;;;;;14.62;32.48;101261.80;1720172;83;21054;-48
2022/05/06 06:46:49;;;;;;;6.17;2.17;;;;;;;14.68;31.47;101259.59;1724802;82;21458;-41
2022/05/06 06:49:37;;;;;;;5.05;1.98;;;;;;;14.74;31.33;101256.51;1720432;83;21541;-49
2022/05/06 06:52:30;;;;;;;3.75;1.92;;;;;;;14.80;30.25;101261.77;1670420;86;21112;-49
2022/05/06 06:54:59;;;;;;;5.62;3.10;;;;;;;14.83;30.45;101256.47;1665252;86;21037;-48
2022/05/06 06:57:42;;;;;;;3.12;2.45;;;;;;;14.87;29.55;101256.91;1647943;86;21092;-48
2022/05/06 07:00:12;;;;;;;4.92;2.65;;;;;;;14.94;30.12;101256.89;1666729;84;21076;-42
2022/05/06 07:03:04;;;;;;;2.47;2.15;;;;;;;15.02;31.05;101252.50;1660623;86;21666;-41
2022/05/06 07:11:52;;;;;;;4.53;2.27;;;;;;;15.11;30.41;101254.64;1640761;86;21525;-40
2022/05/06 07:14:14;;;;;;;4.97;2.30;;;;;;;15.39;30.49;101236.95;1643035;86;21133;-47
2022/05/06 07:17:02;;;;;;;4.25;2.67;;;;;;;15.46;29.54;101243.06;1657991;86;21159;-40
2022/05/06 07:19:42;;;;;;;8.50;2.50;;;;;;;15.52;29.43;101251.39;1662896;86;21013;-47
2022/05/06 07:22:20;;;;;;;6.67;2.25;;;;;;;15.59;28.91;101247.83;1650869;86;21166;-47
2022/05/06 07:25:04;;;;;;;5.17;2.40;;;;;;;15.66;29.20;101244.33;1645508;84;21088;-40
2022/05/06 07:27:38;;;;;;;4.05;2.30;;;;;;;15.75;28.93;101246.02;1672283;83;21592;-41
2022/05/06 07:30:09;;;;;;;7.50;2.55;;;;;;;15.78;29.69;101257.44;1710517;83;21500;-47
2022/05/06 07:32:54;;;;;;;4.45;2.50;;;;;;;15.78;28.83;101248.66;1710942;82;21060;-47
2022/05/06 07:35:22;;;;;;;4.15;2.60;;;;;;;15.85;29.29;101255.64;1729469;80;21100;-42
2022/05/06 07:38:17;;;;;;;4.22;2.35;;;;;;;15.88;29.47;101245.92;1734946;81;21044;-48
2022/05/06 07:40:37;;;;;;;6.33;2.60;;;;;;;15.94;28.73;101251.59;1737081;82;21040;-47
2022/05/06 07:49:02;;;;;;;3.75;2.17;;;;;;;16.16;29.06;101243.08;1811427;77;24143;-40
2022/05/06 07:51:43;;;;;;;;;;;;;;;16.18;28.78;101242.20;1779307;80;21040;-46
2022/05/06 07:54:26;;;;;;;3.22;2.20;;;;;;;16.27;29.03;101243.00;1785098;80;20107;-47
2022/05/06 07:57:06;;;;;;;;;;;;;;;;;;;;;
2022/05/06 07:59:29;;;;;;;4.15;2.62;;;;;;;16.43;29.21;101241.98;1762083;80;21433;-48
2022/05/06 08:05:06;;;;;;;5.05;2.77;;;;;;;16.60;27.98;101247.11;1788536;80;21492;-48
2022/05/06 08:07:52;;;;;;;4.00;2.45;;;;;;;16.65;27.99;101239.57;1785858;80;21048;-41
2022/05/06 08:10:19;;;;;;;10.18;3.40;;;;;;;16.74;28.45;101239.94;1789056;80;20981;-40
2022/05/06 08:13:03;;;;;;;4.15;2.35;;;;;;;16.72;27.47;101235.12;1786389;80;21032;-40
2022/05/06 08:15:28;;;;;;;12.28;3.10;;;;;;;16.72;27.24;101239.09;1789792;79;21022;-41
2022/05/06 08:18:10;;;;;;;5.85;2.65;;;;;;;16.71;27.47;101242.19;1785070;79;20957;-41
2022/05/06 08:20:41;;;;;;;4.42;2.87;;;;;;;16.72;27.51;101243.92;1789401;80;21038;-40
2022/05/06 08:23:13;;;;;;;7.65;2.87;;;;;;;16.79;28.42;101241.22;1781085;79;21082;-41
2022/05/06 08:25:43;;;;;;;4.05;2.60;;;;;;;16.87;28.44;101249.92;1790481;79;20996;-41
2022/05/06 08:28:24;;;;;;;7.95;2.75;;;;;;;16.97;28.55;101244.98;1779979;79;21000;-41
2022/05/06 08:31:12;;;;;;;4.62;2.72;;;;;;;17.03;27.26;101246.23;1797453;79;21053;-42
2022/05/06 08:33:49;;;;;;;3.72;2.67;;;;;;;17.08;26.48;101239.12;1782872;79;21045;-41
2022/05/06 08:36:22;;;;;;;5.28;2.72;;;;;;;17.17;26.71;101240.80;1781347;80;21060;-41
2022/05/06 08:39:20;;;;;;;5.40;2.95;;;;;;;17.25;27.45;101244.20;1782511;80;21038;-41
2022/05/06 08:41:52;;;;;;;4.40;3.12;;;;;;;17.36;28.13;101239.66;1770775;79;21025;-41
2022/05/06 08:53:15;;;;;;;4.75;3.22;;;;;;;17.54;26.64;101228.83;1740306;80;21064;-41
2022/05/06 08:55:55;;;;;;;7.08;2.65;;;;;;;17.62;27.31;101230.03;1777328;80;21026;-41
2022/05/06 08:58:38;;;;;;;3.85;2.80;;;;;;;17.71;27.60;101238.30;1776207;80;21524;-42
2022/05/06 09:01:16;;;;;;;7.58;2.95;;;;;;;17.85;26.22;101236.34;1778827;80;21060;-42
2022/05/06 09:03:48;;;;;;;8.83;2.80;;;;;;;17.93;25.90;101236.25;1737574;82;21018;-40
2022/05/06 09:06:26;;;;;;;9.50;2.92;;;;;;;17.97;26.46;101233.95;1706820;83;22059;-41
2022/05/06 09:09:03;;;;;;;6.75;2.33;;;;;;;17.95;26.47;101230.02;1715055;82;21689;-48
2022/05/06 09:17:43;;;;;;;5.25;2.12;;;;;;;18.04;26.55;101231.21;1684723;83;21041;-41
2022/05/06 09:20:22;;;;;;;6.20;2.95;;;;;;;18.12;25.47;101228.42;1784803;80;21021;-42
2022/05/06 09:23:01;;;;;;;4.42;3.12;;;;;;;18.13;25.69;101227.97;1783459;80;20973;-41
2022/05/06 09:25:42;;;;;;;3.50;2.47;;;;;;;18.15;25.11;101219.55;1773856;80;21060;-42
2022/05/06 09:28:29;;;;;;;4.25;2.40;;;;;;;18.15;25.66;101213.83;1781053;80;21600;-41
2022/05/06 09:31:20;;;;;;;7.00;2.90;;;;;;;18.19;25.85;101220.80;1774647;80;21046;-41
2022/05/06 09:34:01;;;;;;;5.78;2.47;;;;;;;18.25;25.46;101215.84;1754961;80;21044;-41
2022/05/06 09:36:43;;;;;;;4.45;2.90;;;;;;;18.31;25.16;101217.94;1780763;80;21084;-48
2022/05/06 09:39:14;;;;;;;3.45;2.27;;;;;;;18.35;25.55;101213.47;1774639;80;21056;-48
2022/05/06 09:42:10;;;;;;;4.05;2.90;;;;;;;18.42;24.95;101219.08;1755634;80;21108;-48
2022/05/06 09:44:42;;;;;;;9.40;2.02;;;;;;;18.45;25.62;101215.06;1770921;79;21022;-48
2022/05/06 09:47:20;;;;;;;5.70;2.75;;;;;;;18.47;26.31;101213.25;1775473;80;21029;-48
2022/05/06 09:49:51;;;;;;;3.75;2.58;;;;;;;18.44;25.44;101215.97;1771125;80;20977;-48
2022/05/06 09:52:31;;;;;;;4.80;2.58;;;;;;;18.33;25.44;101211.31;1782411;80;21541;-48
2022/05/06 09:55:03;;;;;;;3.30;2.42;;;;;;;18.32;26.00;101210.86;1772357;79;20952;-48
2022/05/06 09:57:35;;;;;;;3.17;2.12;;;;;;;18.35;25.61;101211.69;1755678;80;21077;-48
2022/05/06 10:00:12;;;;;;;8.98;2.12;;;;;;;18.40;25.50;101207.64;1767262;80;21028;-48
2022/05/06 10:02:50;;;;;;;3.17;2.22;;;;;;;18.48;23.68;101212.80;1784852;80;21027;-41
2022/05/06 10:05:37;;;;;;;3.15;2.33;;;;;;;18.54;23.59;101210.03;1668186;86;21110;-42
2022/05/06 10:08:33;;;;;;;4.10;2.22;;;;;;;18.59;25.33;101205.52;1664100;85;21106;-41
2022/05/06 10:11:02;;;;;;;6.55;2.90;;;;;;;18.65;25.15;101201.44;1669464;86;21110;-42
2022/05/06 10:13:34;;;;;;;5.90;2.10;;;;;;;18.74;26.03;101195.13;1662877;86;21524;-41
2022/05/06 10:16:17;;;;;;;9.20;2.47;;;;;;;18.76;25.87;101194.19;1662003;86;21068;-47
2022/05/06 10:18:53;;;;;;;11.75;2.58;;;;;;;18.72;25.65;101194.27;1658437;86;21120;-48
2022/05/06 10:21:26;;;;;;;8.53;2.90;;;;;;;18.77;25.74;101203.01;1659476;86;21182;-48
2022/05/06 10:24:04;;;;;;;8.98;2.30;;;;;;;18.89;24.17;101192.16;1646169;86;21017;-48
2022/05/06 10:26:46;;;;;;;13.50;3.02;;;;;;;19.00;23.73;101198.58;1664665;86;21136;-48
2022/05/06 10:32:55;;;;;;;6.30;2.37;;;;;;;19.60;23.00;101184.47;1661557;84;21589;-41
2022/05/06 10:35:38;;;;;;;4.87;2.50;;;;;;;20.11;23.41;101190.73;1652120;84;21141;-40
2022/05/06 10:38:19;;;;;;;6.70;2.52;;;;;;;20.54;22.85;101182.15;1666325;84;21063;-47
2022/05/06 10:40:56;;;;;;;5.10;2.50;;;;;;;20.96;21.60;101180.93;1654560;86;21053;-41
2022/05/06 10:43:45;;;;;;;9.28;2.45;;;;;;;21.45;21.22;101182.17;1662250;85;21042;-47
2022/05/06 10:46:12;;;;;;;8.20;2.58;;;;;;;22.02;20.53;101171.86;1667855;86;21179;-40
2022/05/06 10:48:39;;;;;;;6.53;2.98;;;;;;;22.58;20.28;101173.06;1655536;86;21053;-47
2022/05/06 10:51:22;;;;;;;7.53;2.70;;;;;;;23.00;20.19;101174.23;1657011;86;21029;-47
2022/05/06 10:53:49;;;;;;;6.47;2.30;;;;;;;23.36;19.71;101171.47;1652084;86;21025;-47
2022/05/06 10:56:16;;;;;;;4.12;2.30;;;;;;;23.84;19.33;101166.48;1658179;86;21640;-39
2022/05/06 10:58:44;;;;;;;8.58;2.62;;;;;;;24.18;18.12;101157.05;1657101;85;21089;-40
2022/05/06 11:01:17;;;;;;;3.52;2.35;;;;;;;24.17;18.75;101160.62;1667506;80;21131;-40
2022/05/06 11:03:53;;;;;;;9.25;2.50;;;;;;;24.21;18.63;101154.22;1762960;80;21072;-41
2022/05/06 11:06:23;;;;;;;7.92;3.02;;;;;;;24.30;18.34;101159.19;1763632;81;21073;-40
2022/05/06 11:08:50;;;;;;;7.12;2.37;;;;;;;24.24;18.44;101156.78;1767624;80;21085;-40
2022/05/06 11:11:19;;;;;;;6.17;2.58;;;;;;;23.96;17.80;101158.89;1744064;81;21524;-40
2022/05/06 11:13:47;;;;;;;6.60;2.72;;;;;;;23.01;19.02;101145.28;1763809;80;20993;-40
2022/05/06 11:16:17;;;;;;;10.03;4.50;;;;;;;23.01;19.02;101145.28;1764340;81;21032;-40
2022/05/06 11:18:45;;;;;;;5.35;2.90;;;;;;;22.87;19.71;101138.25;1759820;81;21001;-38
2022/05/06 11:21:23;;;;;;;7.20;2.77;;;;;;;22.67;19.30;101146.54;1761800;80;21644;-38
2022/05/06 11:23:50;;;;;;;6.85;3.77;;;;;;;22.46;20.37;101149.97;1762215;81;21036;-38
2022/05/06 11:26:27;;;;;;;7.05;3.52;;;;;;;22.23;20.59;101145.45;1762627;81;21489;-40
2022/05/06 11:29:03;;;;;;;3.90;2.33;;;;;;;22.02;20.59;101137.23;1760789;81;21012;-40
2022/05/06 11:31:29;;;;;;;5.35;2.77;;;;;;;21.85;21.32;101130.73;1768106;80;21056;-40
2022/05/06 11:34:01;;;;;;;8.03;3.00;;;;;;;21.66;21.67;101134.00;1767981;81;21013;-40
2022/05/06 11:36:28;;;;;;;4.58;2.50;;;;;;;21.45;21.83;101132.92;1764768;81;21063;-40
2022/05/06 11:38:55;;;;;;;4.75;2.40;;;;;;;21.22;22.00;101129.63;1760547;81;21036;-47
2022/05/06 11:41:21;;;;;;;6.72;2.52;;;;;;;21.03;22.03;101123.09;1758338;81;21104;-47
2022/05/06 11:43:48;;;;;;;10.08;3.00;;;;;;;20.83;22.28;101117.52;1758209;81;21508;-40
2022/05/06 11:49:06;;;;;;;9.95;2.47;;;;;;;20.33;22.51;101122.43;1766441;80;21568;-40
2022/05/06 11:51:43;;;;;;;3.58;2.45;;;;;;;20.33;22.83;101116.66;1770013;80;21052;-47
2022/05/06 11:54:09;;;;;;;7.85;2.70;;;;;;;20.38;22.42;101116.54;1780353;80;21028;-39
2022/05/06 11:56:36;;;;;;;9.05;3.42;;;;;;;20.48;21.86;101110.55;1779921;80;21034;-39
2022/05/06 11:59:03;;;;;;;7.55;2.80;;;;;;;20.49;22.27;101111.83;1783880;79;21077;-38
2022/05/06 12:01:33;;;;;;;5.08;2.10;;;;;;;20.50;22.17;101114.03;1774439;80;21516;-46
2022/05/06 12:04:02;;;;;;;6.17;2.30;;;;;;;20.53;22.39;101109.97;1769206;80;21677;-47
2022/05/06 12:06:30;;;;;;;7.92;2.77;;;;;;;20.52;22.48;101103.76;1731901;82;21576;-40
2022/05/06 12:09:18;;;;;;;5.87;2.33;;;;;;;20.46;22.85;101103.47;1724006;82;21030;-39
2022/05/06 12:11:45;;;;;;;8.65;3.15;;;;;;;20.45;23.28;101099.08;1724068;83;21053;-47
2022/05/06 12:14:17;;;;;;;9.75;2.95;;;;;;;20.44;22.69;101093.32;1706615;82;21028;-40
2022/05/06 12:17:00;;;;;;;5.22;2.85;;;;;;;20.46;22.70;101094.17;1728043;83;21120;-40
2022/05/06 12:19:45;;;;;;;6.20;2.58;;;;;;;20.40;22.49;101094.77;1719852;82;21576;-46
2022/05/06 12:22:15;;;;;;;;;;;;;;;20.30;22.29;101087.53;1733408;83;21099;-47
2022/05/06 12:24:48;;;;;;;5.62;2.83;;;;;;;20.37;22.32;101092.22;1718132;81;20111;-39
2022/05/06 12:27:28;;;;;;;4.72;2.75;;;;;;;20.46;22.16;101086.66;1723368;83;21030;-46
2022/05/06 12:29:55;;;;;;;4.17;2.25;;;;;;;20.53;22.06;101086.05;1731781;82;21002;-40
2022/05/06 12:32:22;;;;;;;6.70;3.08;;;;;;;20.58;22.22;101082.77;1731645;82;21006;-45
2022/05/06 12:35:06;;;;;;;4.90;3.10;;;;;;;20.65;22.47;101083.03;1730667;82;21536;-38
2022/05/06 12:37:32;;;;;;;7.50;3.40;;;;;;;20.77;21.63;101083.13;1728773;83;21411;-46
2022/05/06 12:39:59;;;;;;;9.88;3.02;;;;;;;20.84;22.08;101081.56;1731585;82;21006;-38
2022/05/06 12:42:26;;;;;;;8.25;3.92;;;;;;;20.87;21.41;101077.92;1732377;83;20994;-41
2022/05/06 12:44:52;;;;;;;9.13;3.37;;;;;;;20.81;21.32;101073.66;1732319;82;20998;-38
2022/05/06 12:50:07;;;;;;;6.78;3.45;;;;;;;20.91;22.63;101072.47;1732229;82;21038;-39
2022/05/06 12:52:35;;;;;;;8.50;3.05;;;;;;;20.97;22.23;101065.64;1732056;82;21018;-38
2022/05/06 12:55:06;;;;;;;5.12;2.85;;;;;;;21.03;22.50;101065.04;1730176;82;21032;-46
2022/05/06 12:57:32;;;;;;;14.93;3.55;;;;;;;21.16;21.94;101062.39;1727480;83;21008;-38
2022/05/06 12:59:59;;;;;;;10.72;3.30;;;;;;;21.41;21.58;101061.20;1730799;83;21075;-46
2022/05/06 13:02:25;;;;;;;7.50;3.50;;;;;;;21.75;21.19;101055.16;1730961;83;21009;-39
2022/05/06 13:04:51;;;;;;;8.80;3.00;;;;;;;22.07;20.90;101054.95;1718691;83;21049;-45
2022/05/06 13:07:18;;;;;;;5.83;3.33;;;;;;;22.15;20.59;101052.47;1754225;82;21104;-39
2022/05/06 13:09:45;;;;;;;5.00;2.87;;;;;;;22.33;20.72;101053.59;1778776;80;21086;-46
2022/05/06 13:12:12;;;;;;;6.33;2.90;;;;;;;22.67;20.44;101049.63;1784938;80;21086;-40
2022/05/06 13:14:40;;;;;;;7.47;3.33;;;;;;;22.79;20.25;101046.52;1764358;80;21087;-41
2022/05/06 13:17:06;;;;;;;7.17;3.42;;;;;;;23.05;19.69;101046.38;1754286;82;21039;-47
2022/05/06 13:19:32;;;;;;;11.83;3.87;;;;;;;23.40;19.75;101037.88;1776341;80;21371;-47
2022/05/06 13:21:59;;;;;;;11.12;3.47;;;;;;;23.61;18.88;101040.98;1783188;80;21378;-46
2022/05/06 13:24:26;;;;;;;6.50;3.35;;;;;;;23.56;19.40;101042.52;1777889;80;21012;-40
